Equinunk, Pennsylvania
Current Conditions -  °F | °C
As of 9:35 AM on Tuesday 27 Jan 2015 (Local Time) from KMSV Reporting Station
Overcast Overcast  
Wind Chill:   Ceiling: 5000
Heat Index: 18°   Visibility: 10mi
Dew Point: -2°   Wind: 7mph
Humidity: 42%   Direction: 330°NNW
Pressure: 29.71"   Gusts: NA
Location:  41.86°N, 75.22°W
Report Text: KMSV 271435Z AUTO 33006KT 10SM BKN050 OVC070 M08/M19 A2971 RMK AO1
Loading
Personal Weather Stations






























Interactive Weather Map New forecast layout! Learn more

10-Day Weather Forecast

Advertisements
Track Severe Weather on mobile